Data for 01/05/2008

Time Sea-Level Adjusted Pressure Absolute Pressure Temperature Relative Humidity Dew Point   
(mb) (inHg) (mb) (inHg) (C) (F) (%) (C) (F)
00:05 995 29.38 824 24.33 7.8 46 42 -4.5 24
00:10 995 29.38 824 24.33 7.6 45.8 43 -4.1 24.6
00:15 995 29.38 824 24.33 7.6 45.6 43 -4.2 24.5
00:20 995 29.38 824 24.33 7.6 45.7 43 -4.3 24.3
00:25 995 29.38 824 24.33 7.6 45.6 44 -3.8 25.1
00:30 995 29.38 824 24.33 7.7 45.8 45 -3.5 25.7
00:35 995 29.38 824 24.33 7.3 45.1 47 -3.3 26
00:40 995 29.38 824 24.33 7.2 45 46 -3.7 25.4
00:45 995 29.38 824 24.33 7.6 45.6 44 -3.9 25
00:50 995 29.38 824 24.33 7.5 45.4 44 -4 24.9
00:55 995 29.38 824 24.33 7.5 45.6 45 -3.6 25.6
01:00 994 29.35 824 24.33 7.5 45.4 43 -4.3 24.3
01:05 994 29.35 824 24.33 7.7 45.9 47 -3 26.6
01:10 994 29.35 823 24.3 7.6 45.6 43 -4.2 24.4
01:15 994 29.35 823 24.3 8 46.5 42 -4.1 24.6
01:20 994 29.35 823 24.3 8.1 46.5 45 -3.2 26.3
01:25 994 29.35 823 24.3 7.8 46 43 -3.9 24.9
01:30 994 29.35 823 24.3 7.8 46 46 -3.2 26.3
01:35 994 29.35 823 24.3 7.5 45.4 47 -3.2 26.2
01:40 994 29.35 823 24.3 7.4 45.3 49 -2.6 27.3
01:45 994 29.35 823 24.3 7.1 44.8 47 -3.5 25.7
01:50 994 29.35 823 24.3 7.3 45.1 45 -3.7 25.3
01:55 994 29.35 823 24.3 7.5 45.5 47 -3.1 26.5
02:00 994 29.35 823 24.3 7.4 45.3 47 -3.1 26.4
02:05 994 29.35 823 24.3 7.4 45.4 46 -3.5 25.7
02:10 994 29.35 823 24.3 7.6 45.7 46 -3.4 25.9
02:15 994 29.35 823 24.3 7.5 45.5 47 -3.1 26.5
02:20 994 29.35 823 24.3 7.2 45 47 -3.3 26.1
02:25 995 29.38 824 24.33 7.1 44.8 50 -2.6 27.3
02:30 995 29.38 824 24.33 6.8 44.2 50 -2.8 27
02:35 995 29.38 824 24.33 6.7 44 51 -2.7 27.1
02:40 994 29.35 824 24.33 6.6 44 52 -2.6 27.4
02:45 994 29.35 823 24.3 6.6 43.9 51 -2.8 27
02:50 994 29.35 823 24.3 6.6 43.9 52 -2.5 27.6
02:55 994 29.35 823 24.3 6.5 43.7 51 -2.9 26.7
03:00 994 29.35 823 24.3 6.8 44.2 50 -2.9 26.7
03:05 994 29.35 823 24.3 6.8 44.3 49 -3.2 26.2
03:10 994 29.35 823 24.3 6.9 44.4 46 -4 24.9
03:15 994 29.35 823 24.3 7.2 44.9 46 -3.7 25.3
03:20 994 29.35 823 24.3 7 44.5 49 -3.1 26.4
03:25 994 29.35 823 24.3 6.7 44 50 -3 26.5
03:30 994 29.35 823 24.3 6.4 43.6 51 -2.9 26.8
03:35 994 29.35 823 24.3 6.3 43.4 52 -2.9 26.8
03:40 994 29.35 823 24.3 6.3 43.3 51 -3 26.6
03:45 994 29.35 823 24.3 6.2 43.2 49 -3.6 25.5
03:50 994 29.35 823 24.3 6.5 43.6 49 -3.4 25.9
03:55 994 29.35 823 24.3 6.5 43.7 50 -3.3 26.1
04:00 994 29.35 823 24.3 6.5 43.8 48 -3.7 25.4
04:05 994 29.35 823 24.3 6.4 43.6 48 -3.6 25.4
04:10 994 29.35 823 24.3 6.3 43.4 50 -3.3 26.1
04:15 994 29.35 823 24.3 6.2 43.1 51 -3.1 26.4
04:20 994 29.35 823 24.3 6.1 42.9 52 -3 26.6
04:25 994 29.35 823 24.3 6 42.8 50 -3.5 25.7
04:30 994 29.35 823 24.3 6 42.8 52 -3 26.5
04:35 994 29.35 823 24.3 6 42.8 50 -3.6 25.6
04:40 994 29.35 823 24.3 6 42.8 51 -3.3 26.1
04:45 994 29.35 823 24.3 6.1 43 47 -4.5 23.9
04:50 994 29.35 823 24.3 6.4 43.4 48 -3.9 25
04:55 994 29.35 823 24.3 6.1 43 47 -4.4 24.1
05:00 994 29.35 823 24.3 6.1 43 48 -4 24.9
05:05 994 29.35 824 24.33 5.8 42.5 49 -4.1 24.7
05:10 994 29.35 824 24.33 5.8 42.4 49 -4.1 24.7
05:15 995 29.38 824 24.33 5.7 42.3 53 -3.2 26.2
05:20 995 29.38 824 24.33 5.3 41.5 56 -2.8 26.9
05:25 995 29.38 824 24.33 5.1 41.2 56 -3 26.7
05:30 995 29.38 824 24.33 5 41.1 55 -3.2 26.3
05:35 995 29.38 824 24.33 5.1 41.2 54 -3.5 25.8
05:40 995 29.38 824 24.33 5.3 41.5 51 -4.1 24.6
05:45 995 29.38 825 24.36 5.5 41.9 50 -4.1 24.6
05:50 996 29.41 825 24.36 5.4 41.6 61 -1.6 29.2
05:55 996 29.41 825 24.36 4 39.1 69 -1.2 29.8
06:00 996 29.41 825 24.36 3.2 37.8 73 -1.2 29.9
06:05 996 29.41 825 24.36 2.9 37.1 75 -1.2 29.8
06:10 996 29.41 825 24.36 2.6 36.7 76 -1.3 29.7
06:15 996 29.41 825 24.36 2.6 36.6 76 -1.3 29.6
06:20 996 29.41 825 24.36 2.5 36.5 77 -1.1 30
06:25 996 29.41 825 24.36 2.2 36 80 -0.8 30.5
06:30 996 29.41 825 24.36 2.1 35.8 79 -1.3 29.7
06:35 996 29.41 825 24.36 2.1 35.8 78 -1.4 29.5
06:40 996 29.41 825 24.36 2.4 36.4 72 -2 28.3
06:45 996 29.41 825 24.36 2.7 36.9 73 -1.6 29.1
06:50 996 29.41 825 24.36 2.6 36.6 73 -1.7 28.9
06:55 996 29.41 825 24.36 2.7 36.9 70 -2.1 28.1
07:00 996 29.41 825 24.36 2.8 37.1 69 -2.2 28
07:05 996 29.41 826 24.39 3 37.4 68 -2.4 27.7
07:10 996 29.41 826 24.39 3 37.4 66 -2.7 27.1
07:15 996 29.41 825 24.36 3.1 37.6 65 -2.9 26.8
07:20 996 29.41 825 24.36 3.2 37.8 63 -3.1 26.5
07:25 996 29.41 826 24.39 3.1 37.6 64 -3.1 26.4
07:30 996 29.41 826 24.39 3.1 37.6 63 -3.3 26.1
07:35 996 29.41 826 24.39 3 37.4 65 -2.8 26.9
07:40 996 29.41 826 24.39 2.9 37.2 66 -2.8 26.9
07:45 996 29.41 826 24.39 2.9 37.2 62 -3.7 25.3
07:50 997 29.44 826 24.39 3.1 37.7 60 -3.9 25
07:55 997 29.44 826 24.39 3.2 37.8 58 -4.1 24.6
08:00 996 29.41 826 24.39 3.2 37.8 59 -4 24.7
08:05 996 29.41 826 24.39 3.2 37.8 56 -4.7 23.6
08:10 996 29.41 826 24.39 3.3 38 57 -4.3 24.3
08:15 997 29.44 826 24.39 3.4 38 56 -4.6 23.7
08:20 996 29.41 826 24.39 3.3 38 56 -4.5 23.8
08:25 996 29.41 826 24.39 3.2 37.8 60 -3.8 25.2
08:30 996 29.41 826 24.39 3 37.5 61 -3.8 25.1
08:35 996 29.41 825 24.36 2.8 37.1 62 -3.7 25.4
08:40 996 29.41 826 24.39 2.6 36.6 65 -3.3 26
08:45 997 29.44 826 24.39 2.3 36.2 66 -3.4 25.9
08:50 997 29.44 826 24.39 2.3 36.1 69 -2.8 26.9
08:55 997 29.44 826 24.39 2 35.7 71 -2.6 27.2
09:00 997 29.44 826 24.39 1.9 35.4 74 -2.3 27.8
09:05 997 29.44 826 24.39 1.7 35.1 73 -2.7 27.2
09:10 997 29.44 827 24.42 1.6 34.8 72 -3 26.6
09:15 998 29.47 827 24.42 1.5 34.8 74 -2.6 27.3
09:20 997 29.44 827 24.42 1.6 34.8 66 -4 24.8
09:25 998 29.47 827 24.42 1.7 35.1 68 -3.5 25.7
09:30 998 29.47 827 24.42 1.6 34.9 64 -4.5 23.9
09:35 998 29.47 827 24.42 1.8 35.2 67 -3.7 25.3
09:40 997 29.44 827 24.42 1.2 34.1 78 -2.3 27.9
09:45 997 29.44 827 24.42 0.5 33 80 -2.4 27.6
09:50 997 29.44 827 24.42 0.6 33 79 -2.7 27.2
09:55 997 29.44 827 24.42 0.6 33.1 77 -3 26.7
10:00 998 29.47 827 24.42 0.6 33.1 77 -2.9 26.7
10:05 998 29.47 827 24.42 0.6 33.1 77 -2.9 26.8
10:10 998 29.47 827 24.42 0.9 33.7 68 -4.2 24.4
10:15 998 29.47 827 24.42 1.1 33.9 68 -4.1 24.6
10:20 998 29.47 827 24.42 1 33.9 66 -4.6 23.8
10:25 998 29.47 827 24.42 1.3 34.4 60 -5.6 22
10:30 998 29.47 827 24.42 1.7 35 57 -6 21.3
10:35 998 29.47 827 24.42 1.8 35.3 54 -6.6 20.1
10:40 998 29.47 827 24.42 2.4 36.4 51 -6.6 20.1
10:45 998 29.47 827 24.42 2.8 37 49 -6.8 19.7
10:50 998 29.47 827 24.42 3.6 38.5 48 -6.4 20.6
10:55 998 29.47 827 24.42 4.7 40.4 44 -6.6 20
11:00 998 29.47 827 24.42 4.2 39.6 47 -6.1 21
11:05 998 29.47 827 24.42 3.8 38.8 49 -6.1 21.1
11:10 998 29.47 827 24.42 4.1 39.4 48 -6.1 21.1
11:15 998 29.47 827 24.42 3.9 39 50 -5.5 22.1
11:20 998 29.47 827 24.42 3.3 37.9 53 -5.5 22.2
11:25 998 29.47 827 24.42 2.9 37.2 53 -5.7 21.8
11:30 998 29.47 827 24.42 2.9 37.2 53 -5.7 21.7
11:35 998 29.47 827 24.42 3.4 38.2 51 -5.8 21.6
11:40 998 29.47 827 24.42 3.6 38.5 49 -6.1 21
11:45 998 29.47 827 24.42 4.4 39.9 46 -6.3 20.7
11:50 998 29.47 827 24.42 5.6 42.1 43 -6 21.2
11:55 998 29.47 827 24.42 4.8 40.6 46 -6 21.2
12:00 998 29.47 827 24.42 4.1 39.4 48 -5.9 21.3
12:05 998 29.47 827 24.42 3.8 38.8 47 -6.5 20.3
12:10 998 29.47 827 24.42 3.5 38.3 49 -6.1 21
12:15 998 29.47 827 24.42 3.2 37.7 51 -5.9 21.3
12:20 998 29.47 827 24.42 3 37.4 53 -5.8 21.6
12:25 998 29.47 827 24.42 2.9 37.3 53 -5.8 21.5
12:30 998 29.47 827 24.42 3 37.4 52 -6 21.3
12:35 997 29.44 827 24.42 3.2 37.8 53 -5.4 22.2
12:40 998 29.47 827 24.42 3.5 38.2 51 -5.7 21.8
12:45 998 29.47 827 24.42 3.8 38.9 49 -5.9 21.4
12:50 998 29.47 827 24.42 3.4 38 49 -6.3 20.6
12:55 998 29.47 827 24.42 3.2 37.7 49 -6.5 20.3
13:00 998 29.47 827 24.42 3 37.4 51 -6.1 21.1
13:05 998 29.47 827 24.42 2.1 35.8 58 -5.4 22.4
13:10 998 29.47 827 24.42 1.4 34.5 65 -4.5 23.9
13:15 998 29.47 827 24.42 0.9 33.6 61 -5.8 21.6
13:20 997 29.44 827 24.42 0.7 33.3 55 -7.2 19.1
13:25 997 29.44 826 24.39 1.7 35.1 50 -7.7 18.1
13:30 997 29.44 826 24.39 2.5 36.6 51 -6.7 20
13:35 997 29.44 826 24.39 2.9 37.2 51 -6.4 20.5
13:40 997 29.44 826 24.39 2.9 37.2 49 -6.8 19.8
13:45 997 29.44 826 24.39 2.9 37.2 48 -6.9 19.5
13:50 997 29.44 826 24.39 2.7 36.8 47 -7.4 18.6
13:55 997 29.44 826 24.39 2.6 36.6 48 -7.4 18.7
14:00 997 29.44 826 24.39 2.5 36.4 48 -7.4 18.7
14:05 997 29.44 827 24.42 2.9 37.3 45 -7.9 17.7
14:10 997 29.44 827 24.42 3.4 38.1 40 -9 15.8
14:15 997 29.44 827 24.42 3.2 37.8 43 -8.2 17.2
14:20 997 29.44 827 24.42 3.1 37.5 39 -9.7 14.5
14:25 998 29.47 827 24.42 3 37.4 39 -9.7 14.5
14:30 998 29.47 827 24.42 2.9 37.3 38 -9.9 14.2
14:35 998 29.47 827 24.42 2.8 37 42 -8.9 15.9
14:40 998 29.47 827 24.42 2.6 36.7 45 -8.2 17.2
14:45 998 29.47 827 24.42 2.5 36.6 44 -8.4 16.8
14:50 998 29.47 827 24.42 2.5 36.5 44 -8.6 16.5
14:55 998 29.47 827 24.42 2.4 36.4 46 -8.1 17.5
15:00 998 29.47 828 24.45 2.5 36.5 45 -8.2 17.2
15:05 999 29.5 828 24.45 2.4 36.4 62 -4.2 24.5
15:10 999 29.5 828 24.45 0.8 33.4 72 -3.7 25.4
15:15 999 29.5 828 24.45 -0 31.9 76 -3.7 25.3
15:20 999 29.5 828 24.45 -0.2 31.6 78 -3.7 25.4
15:25 999 29.5 828 24.45 -0.2 31.7 80 -3.3 26.1
15:30 999 29.5 828 24.45 -0.2 31.6 82 -2.9 26.8
15:35 999 29.5 828 24.45 -0.6 30.9 84 -2.9 26.7
15:40 999 29.5 828 24.45 -0.6 30.9 85 -2.9 26.8
15:45 999 29.5 828 24.45 -0.5 31.1 84 -2.9 26.8
15:50 999 29.5 828 24.45 -0.8 30.6 83 -3.3 26.1
15:55 999 29.5 828 24.45 0 32 73 -4.2 24.5
16:00 999 29.5 828 24.45 0.7 33.3 72 -3.7 25.4
16:05 999 29.5 828 24.45 0.9 33.6 62 -5.5 22
16:10 999 29.5 828 24.45 1.1 34 63 -5.2 22.7
16:15 999 29.5 828 24.45 1.1 33.9 53 -7.4 18.6
16:20 999 29.5 828 24.45 1.4 34.5 50 -7.8 18
16:25 999 29.5 828 24.45 1.4 34.5 50 -8 17.5
16:30 999 29.5 828 24.45 1.4 34.5 48 -8.4 16.9
16:35 999 29.5 828 24.45 1.5 34.6 47 -8.6 16.5
16:40 999 29.5 829 24.48 1.5 34.6 46 -8.8 16.1
16:45 1000 29.53 829 24.48 1.5 34.8 46 -8.9 16
16:50 1000 29.53 829 24.48 1.5 34.7 48 -8.5 16.7
16:55 1000 29.53 829 24.48 1.5 34.6 48 -8.4 16.8
17:00 1000 29.53 829 24.48 1.5 34.7 47 -8.6 16.5
17:05 1000 29.53 829 24.48 1.5 34.7 48 -8.4 17
17:10 1000 29.53 829 24.48 1.4 34.5 47 -8.7 16.3
17:15 1000 29.53 829 24.48 1.2 34.2 48 -8.6 16.5
17:20 1000 29.53 829 24.48 1.1 34 46 -9.2 15.4
17:25 1000 29.53 829 24.48 1.1 33.9 48 -8.7 16.3
17:30 1000 29.53 829 24.48 0.9 33.7 48 -8.8 16.2
17:35 1000 29.53 829 24.48 0.9 33.6 48 -8.9 16
17:40 1000 29.53 829 24.48 0.9 33.6 49 -8.8 16.2
17:45 1000 29.53 829 24.48 0.8 33.4 48 -8.9 16
17:50 1000 29.53 829 24.48 0.8 33.4 48 -9 15.8
17:55 1000 29.53 829 24.48 0.6 33.1 47 -9.4 15.1
18:00 1000 29.53 829 24.48 0.6 33 46 -9.8 14.3
18:05 1000 29.53 829 24.48 0.7 33.3 44 -10.3 13.5
18:10 1000 29.53 829 24.48 0.9 33.6 45 -9.9 14.2
18:15 1000 29.53 829 24.48 0.9 33.5 43 -10.4 13.3
18:20 1000 29.53 829 24.48 0.9 33.5 43 -10.4 13.4
18:25 1000 29.53 829 24.48 0.8 33.5 45 -9.9 14.2
18:30 1000 29.53 830 24.51 0.8 33.4 43 -10.4 13.2
18:35 1000 29.53 829 24.48 0.8 33.5 44 -10.1 13.9
18:40 1000 29.53 829 24.48 0.8 33.4 44 -10.2 13.6
18:45 1000 29.53 829 24.48 0.7 33.3 43 -10.5 13.1
18:50 1000 29.53 829 24.48 0.7 33.2 43 -10.4 13.3
18:55 1000 29.53 830 24.51 0.7 33.2 44 -10.2 13.7
19:00 1001 29.56 830 24.51 0.6 33 42 -10.8 12.5
19:05 1001 29.56 830 24.51 0.4 32.8 42 -11.2 11.9
19:10 1001 29.56 830 24.51 0.4 32.7 42 -11.2 11.8
19:15 1001 29.56 830 24.51 0.3 32.6 42 -11.3 11.7
19:20 1001 29.56 830 24.51 0.3 32.5 41 -11.6 11.2
19:25 1001 29.56 830 24.51 0.2 32.3 41 -11.7 10.9
19:30 1001 29.56 831 24.54 0.2 32.3 41 -11.5 11.4
19:35 1001 29.56 831 24.54 -0 31.9 41 -11.8 10.8
19:40 1001 29.56 831 24.54 -0.2 31.7 42 -11.7 10.9
19:45 1001 29.56 831 24.54 -0.2 31.6 40 -12.3 9.9
19:50 1001 29.56 831 24.54 -0.2 31.6 41 -11.9 10.6
19:55 1001 29.56 831 24.54 -0.4 31.3 42 -11.8 10.8
20:00 1002 29.59 831 24.54 -0.6 31 42 -11.8 10.7
20:05 1002 29.59 831 24.54 -0.7 30.8 42 -12 10.4
20:10 1002 29.59 831 24.54 -0.7 30.7 41 -12.4 9.6
20:15 1002 29.59 831 24.54 -0.7 30.7 41 -12.5 9.5
20:20 1002 29.59 831 24.54 -0.8 30.6 41 -12.6 9.4
20:25 1002 29.59 831 24.54 -0.8 30.5 40 -12.8 8.9
20:30 1002 29.59 831 24.54 -0.9 30.4 40 -12.8 9
20:35 1002 29.59 831 24.54 -1 30.3 40 -12.9 8.7
20:40 1002 29.59 831 24.54 -1.1 30.1 41 -12.9 8.8
20:45 1002 29.59 831 24.54 -1.2 29.9 40 -13.1 8.3
20:50 1002 29.59 831 24.54 -1.1 30 41 -12.9 8.8
20:55 1002 29.59 831 24.54 -1.2 29.9 41 -12.8 9
21:00 1002 29.59 831 24.54 -1.2 29.9 42 -12.6 9.4
21:05 1002 29.59 831 24.54 -1.2 29.8 42 -12.7 9.1
21:10 1002 29.59 831 24.54 -1.2 29.8 42 -12.5 9.5
21:15 1002 29.59 831 24.54 -1.3 29.7 42 -12.5 9.5
21:20 1002 29.59 831 24.54 -1.4 29.5 44 -12.2 10
21:25 1002 29.59 831 24.54 -1.4 29.5 43 -12.5 9.5
21:30 1002 29.59 831 24.54 -1.4 29.5 44 -12.3 9.9
21:35 1002 29.59 831 24.54 -1.5 29.2 44 -12.2 10.1
21:40 1002 29.59 831 24.54 -1.6 29.1 47 -11.6 11.1
21:45 1002 29.59 831 24.54 -1.7 28.9 45 -12.2 10
21:50 1002 29.59 831 24.54 -1.7 29 44 -12.4 9.7
21:55 1002 29.59 831 24.54 -1.7 28.9 44 -12.5 9.6
22:00 1002 29.59 831 24.54 -1.8 28.7 44 -12.5 9.5
22:05 1002 29.59 831 24.54 -1.9 28.6 42 -13.1 8.3
22:10 1002 29.59 831 24.54 -1.7 28.9 41 -13.4 7.9
22:15 1002 29.59 831 24.54 -1.6 29.1 42 -12.9 8.7
22:20 1002 29.59 831 24.54 -1.8 28.8 42 -12.9 8.8
22:25 1002 29.59 831 24.54 -1.7 28.9 41 -13.2 8.2
22:30 1002 29.59 831 24.54 -1.8 28.8 43 -12.7 9.1
22:35 1002 29.59 831 24.54 -2.2 28.1 44 -12.9 8.7
22:40 1002 29.59 831 24.54 -2.6 27.4 44 -13.2 8.3
22:45 1002 29.59 831 24.54 -2.6 27.3 44 -13.2 8.2
22:50 1002 29.59 831 24.54 -2.6 27.4 44 -13.3 8
22:55 1002 29.59 831 24.54 -2.6 27.4 44 -13.4 8
23:00 1002 29.59 831 24.54 -2.4 27.7 43 -13.5 7.8
23:05 1002 29.59 831 24.54 -2.4 27.7 43 -13.5 7.8
23:10 1002 29.59 831 24.54 -2.4 27.7 43 -13.5 7.8
23:15 1002 29.59 831 24.54 -2.6 27.4 45 -13 8.6
23:20 1002 29.59 831 24.54 -3 26.7 47 -12.9 8.9
23:25 1002 29.59 831 24.54 -3.4 25.8 48 -12.9 8.8
23:30 1002 29.59 831 24.54 -3.7 25.4 48 -13.2 8.2
23:35 1002 29.59 831 24.54 -3.7 25.3 46 -13.7 7.4
23:40 1002 29.59 831 24.54 -3.4 25.8 46 -13.5 7.6
23:45 1002 29.59 831 24.54 -3.4 25.8 46 -13.4 7.9
23:50 1002 29.59 831 24.54 -3.6 25.5 46 -13.6 7.5
23:55 1001 29.56 831 24.54 -3.5 25.7 46 -13.6 7.5
24:00 1001 29.56 831 24.54 -3.7 25.4 47 -13.4 8